createdAt,value
2018-09-04T00:00:42.972Z,99729.67
2018-09-04T00:03:08.921Z,99726.25
2018-09-04T00:05:34.839Z,99728.78
2018-09-04T00:08:00.900Z,99723.11
2018-09-04T00:10:26.875Z,99716.12
2018-09-04T00:12:52.813Z,99714.30
2018-09-04T00:15:18.747Z,99710.50
2018-09-04T00:17:44.701Z,99712.33
2018-09-04T00:20:10.624Z,99708.41
2018-09-04T00:22:36.572Z,99706.48
2018-09-04T00:25:02.497Z,99707.31
2018-09-04T00:27:28.498Z,99712.64
2018-09-04T00:29:54.392Z,99710.95
2018-09-04T00:32:20.338Z,99705.29
2018-09-04T00:34:46.270Z,99702.77
2018-09-04T00:37:12.198Z,99704.34
2018-09-04T00:39:38.155Z,99702.86
2018-09-04T00:42:04.085Z,99707.78
2018-09-04T00:44:30.049Z,99703.41
2018-09-04T00:46:55.989Z,99699.05
2018-09-04T00:49:21.931Z,99704.81
2018-09-04T00:51:47.857Z,99703.70
2018-09-04T00:54:13.798Z,99705.09
2018-09-04T00:56:39.728Z,99707.27
2018-09-04T00:59:05.750Z,99696.11
2018-09-04T01:01:31.636Z,99694.13
2018-09-04T01:03:57.632Z,99693.86
2018-09-04T01:06:23.576Z,99695.52
2018-09-04T01:08:49.528Z,99694.57
2018-09-04T01:11:15.487Z,99698.38
2018-09-04T01:13:41.416Z,99693.42
2018-09-04T01:16:07.616Z,99700.11
2018-09-04T01:18:33.552Z,99705.91
2018-09-04T01:20:59.480Z,99709.97
2018-09-04T01:23:25.423Z,99709.34
2018-09-04T01:25:51.371Z,99709.95
2018-09-04T01:28:17.304Z,99703.97
2018-09-04T01:30:43.220Z,99711.70
2018-09-04T01:33:09.169Z,99705.08
2018-09-04T01:35:35.109Z,99708.61
2018-09-04T01:38:01.063Z,99704.78
2018-09-04T01:40:27.050Z,99706.52
2018-09-04T01:42:52.996Z,99713.78
2018-09-04T01:45:18.948Z,99705.19
2018-09-04T01:47:44.884Z,99707.61
2018-09-04T01:50:10.864Z,99708.41
2018-09-04T01:52:36.841Z,99709.30
2018-09-04T01:55:02.777Z,99705.69
2018-09-04T01:57:28.734Z,99712.98
2018-09-04T01:59:54.685Z,99705.27
2018-09-04T02:02:20.645Z,99708.03
2018-09-04T02:04:46.594Z,99717.91
2018-09-04T02:07:12.560Z,99715.62
2018-09-04T02:09:38.489Z,99710.34
2018-09-04T02:12:04.461Z,99709.67
2018-09-04T02:14:30.401Z,99707.14
2018-09-04T02:16:56.360Z,99709.69
2018-09-04T02:19:22.300Z,99705.63
2018-09-04T02:21:48.241Z,99719.00
2018-09-04T02:24:14.219Z,99715.75
2018-09-04T02:26:40.213Z,99723.77
2018-09-04T02:29:06.144Z,99722.27
2018-09-04T02:31:32.100Z,99715.98
2018-09-04T02:33:58.060Z,99725.63
2018-09-04T02:36:24.004Z,99726.40
2018-09-04T02:38:49.956Z,99727.77
2018-09-04T02:41:15.941Z,99733.48
2018-09-04T02:43:41.861Z,99732.32
2018-09-04T02:46:07.808Z,99735.20
2018-09-04T02:48:33.771Z,99735.06
2018-09-04T02:50:59.704Z,99738.93
2018-09-04T02:53:25.651Z,99740.41
2018-09-04T02:55:51.603Z,99736.69
2018-09-04T02:58:17.571Z,99740.41
2018-09-04T03:00:43.553Z,99745.66
2018-09-04T03:03:09.515Z,99745.59
2018-09-04T03:05:35.464Z,99747.88
2018-09-04T03:08:01.433Z,99747.78
2018-09-04T03:10:27.377Z,99745.22
2018-09-04T03:12:53.313Z,99744.61
2018-09-04T03:15:19.311Z,99741.83
2018-09-04T03:17:45.281Z,99739.73
2018-09-04T03:20:11.227Z,99737.70
2018-09-04T03:22:37.208Z,99732.88
2018-09-04T03:27:35.554Z,99737.38
2018-09-04T03:30:01.477Z,99740.59
2018-09-04T03:32:27.461Z,99733.84
2018-09-04T03:34:53.482Z,99733.81
2018-09-04T03:37:19.486Z,99729.59
2018-09-04T03:39:45.458Z,99732.02
2018-09-04T03:42:11.493Z,99732.36
2018-09-04T03:44:37.441Z,99733.74
2018-09-04T03:47:03.425Z,99741.84
2018-09-04T03:49:29.388Z,99737.64
2018-09-04T03:51:55.420Z,99737.77
2018-09-04T03:54:21.393Z,99735.59
2018-09-04T03:56:47.338Z,99738.86
2018-09-04T03:59:13.332Z,99737.13
2018-09-04T04:01:39.339Z,99736.95
2018-09-04T04:04:05.325Z,99740.82
2018-09-04T04:06:31.256Z,99741.09
2018-09-04T04:08:57.235Z,99734.03
2018-09-04T04:11:23.171Z,99741.84
2018-09-04T04:13:49.114Z,99742.64
2018-09-04T04:16:15.086Z,99742.63
2018-09-04T04:18:41.087Z,99746.37
2018-09-04T04:21:07.043Z,99746.15
2018-09-04T04:23:33.008Z,99749.09
2018-09-04T04:25:58.966Z,99753.83
2018-09-04T04:28:24.923Z,99751.20
2018-09-04T04:30:50.875Z,99752.35
2018-09-04T04:33:16.826Z,99754.71
2018-09-04T04:35:42.780Z,99758.84
2018-09-04T04:38:08.759Z,99753.39
2018-09-04T04:40:34.724Z,99759.28
2018-09-04T04:43:00.688Z,99757.88
2018-09-04T04:45:26.644Z,99758.70
2018-09-04T04:47:52.703Z,99761.27
2018-09-04T04:50:18.692Z,99765.88
2018-09-04T04:52:44.654Z,99766.91
2018-09-04T04:55:10.608Z,99758.88
2018-09-04T04:57:36.547Z,99768.92
2018-09-04T05:00:02.507Z,99771.50
2018-09-04T05:02:28.463Z,99767.25
2018-09-04T05:04:54.447Z,99772.30
2018-09-04T05:07:20.400Z,99773.83
2018-09-04T05:09:47.356Z,99773.59
2018-09-04T05:12:13.324Z,99776.16
2018-09-04T05:14:39.289Z,99777.20
2018-09-04T05:17:05.267Z,99781.03
2018-09-04T05:19:31.225Z,99782.34
2018-09-04T05:21:57.211Z,99782.34
2018-09-04T05:24:23.172Z,99785.55
2018-09-04T05:26:49.129Z,99785.23
2018-09-04T05:29:15.237Z,99791.78
2018-09-04T05:31:41.150Z,99790.53
2018-09-04T05:34:07.231Z,99794.59
2018-09-04T05:36:33.192Z,99789.20
2018-09-04T05:38:59.152Z,99793.03
2018-09-04T05:41:25.112Z,99792.16
2018-09-04T05:43:51.100Z,99794.42
2018-09-04T05:46:17.047Z,99792.70
2018-09-04T05:48:43.067Z,99801.27
2018-09-04T05:51:09.005Z,99798.09
2018-09-04T05:53:35.072Z,99797.38
2018-09-04T05:56:01.030Z,99803.31
2018-09-04T05:58:26.966Z,99801.00
2018-09-04T06:00:52.901Z,99799.17
2018-09-04T06:03:18.848Z,99800.38
2018-09-04T06:05:44.824Z,99801.44
2018-09-04T06:08:10.814Z,99807.09
2018-09-04T06:10:36.785Z,99809.48
2018-09-04T06:13:02.738Z,99811.05
2018-09-04T06:15:28.689Z,99813.40
2018-09-04T06:17:54.638Z,99818.75
2018-09-04T06:20:20.566Z,99805.72
2018-09-04T06:22:46.510Z,99809.01
2018-09-04T06:25:12.440Z,99810.69
2018-09-04T06:27:39.443Z,99809.56
2018-09-04T06:30:05.436Z,99805.96
2018-09-04T06:32:31.388Z,99811.22
2018-09-04T06:34:57.353Z,99807.70
2018-09-04T06:37:23.306Z,99806.66
2018-09-04T06:39:49.287Z,99812.61
2018-09-04T06:42:15.255Z,99821.72
2018-09-04T06:44:41.238Z,99822.98
2018-09-04T06:47:07.204Z,99816.12
2018-09-04T06:49:33.187Z,99810.09
2018-09-04T06:51:59.187Z,99812.16
2018-09-04T06:54:25.187Z,99811.80
2018-09-04T06:56:51.176Z,99814.75
2018-09-04T06:59:17.128Z,99819.80
2018-09-04T07:01:43.076Z,99818.47
2018-09-04T07:04:09.019Z,99825.84
2018-09-04T07:06:34.967Z,99825.94
2018-09-04T07:09:00.941Z,99830.94
2018-09-04T07:11:26.875Z,99833.94
2018-09-04T07:13:53.943Z,99830.16
2018-09-04T07:16:19.926Z,99831.44
2018-09-04T07:18:45.865Z,99831.44
2018-09-04T07:23:44.188Z,99832.73
2018-09-04T07:26:10.128Z,99833.06
2018-09-04T07:28:36.117Z,99837.70
2018-09-04T07:31:02.062Z,99833.81
2018-09-04T07:33:28.013Z,99838.70
2018-09-04T07:35:53.965Z,99832.23
2018-09-04T07:38:19.912Z,99825.77
2018-09-04T07:40:45.853Z,99828.05
2018-09-04T07:43:12.788Z,99832.14
2018-09-04T07:45:38.748Z,99831.06
2018-09-04T07:48:04.685Z,99833.69
2018-09-04T07:50:30.612Z,99832.70
2018-09-04T07:52:56.536Z,99830.74
2018-09-04T07:55:22.511Z,99837.38
2018-09-04T07:57:48.450Z,99831.48
2018-09-04T08:00:14.405Z,99835.52
2018-09-04T08:02:40.338Z,99836.62
2018-09-04T08:05:06.269Z,99830.47
2018-09-04T08:07:32.213Z,99835.94
2018-09-04T08:09:58.193Z,99830.41
2018-09-04T08:12:24.164Z,99826.62
2018-09-04T08:14:50.106Z,99826.13
2018-09-04T08:17:16.085Z,99827.06
2018-09-04T08:19:42.048Z,99827.27
2018-09-04T08:22:08.022Z,99827.13
2018-09-04T08:24:33.966Z,99817.20
2018-09-04T08:26:59.927Z,99817.37
2018-09-04T08:29:25.899Z,99820.66
2018-09-04T08:31:51.882Z,99812.50
2018-09-04T08:34:17.844Z,99820.80
2018-09-04T08:36:43.803Z,99814.25
2018-09-04T08:39:09.748Z,99812.27
2018-09-04T08:41:35.702Z,99807.31
2018-09-04T08:44:01.634Z,99817.66
2018-09-04T08:46:27.600Z,99819.46
2018-09-04T08:48:53.561Z,99813.00
2018-09-04T08:51:19.526Z,99812.45
2018-09-04T08:53:45.476Z,99807.11
2018-09-04T08:56:11.444Z,99804.70
2018-09-04T08:58:37.443Z,99806.83
2018-09-04T09:01:03.388Z,99806.89
2018-09-04T09:03:29.383Z,99805.90
2018-09-04T09:05:55.401Z,99808.88
2018-09-04T09:08:21.445Z,99803.92
2018-09-04T09:10:47.458Z,99804.01
2018-09-04T09:13:13.415Z,99799.80
2018-09-04T09:15:39.372Z,99805.50
2018-09-04T09:18:05.324Z,99799.25
2018-09-04T09:20:33.487Z,99807.19
2018-09-04T09:22:59.515Z,99801.36
2018-09-04T09:25:25.413Z,99803.70
2018-09-04T09:27:51.418Z,99801.17
2018-09-04T09:30:17.360Z,99803.91
2018-09-04T09:32:43.313Z,99799.58
2018-09-04T09:35:09.370Z,99798.95
2018-09-04T09:37:35.329Z,99792.97
2018-09-04T09:40:02.329Z,99797.24
2018-09-04T09:42:28.373Z,99793.16
2018-09-04T09:44:54.329Z,99796.55
2018-09-04T09:47:20.296Z,99794.35
2018-09-04T09:49:46.252Z,99794.15
2018-09-04T09:52:12.218Z,99790.99
2018-09-04T09:54:38.172Z,99787.14
2018-09-04T09:57:04.151Z,99791.02
2018-09-04T09:59:30.164Z,99790.54
2018-09-04T10:01:56.117Z,99789.70
2018-09-04T10:04:22.078Z,99793.60
2018-09-04T10:06:48.033Z,99781.67
2018-09-04T10:09:13.974Z,99786.96
2018-09-04T10:11:39.909Z,99783.17
2018-09-04T10:14:05.880Z,99784.95
2018-09-04T10:16:31.848Z,99780.19
2018-09-04T10:18:57.814Z,99775.56
2018-09-04T10:21:23.791Z,99771.84
2018-09-04T10:23:49.727Z,99772.53
2018-09-04T10:26:15.661Z,99770.69
2018-09-04T10:28:41.646Z,99761.46
2018-09-04T10:31:07.585Z,99767.52
2018-09-04T10:33:33.550Z,99772.37
2018-09-04T10:35:59.493Z,99776.80
2018-09-04T10:38:25.455Z,99765.05
2018-09-04T10:40:51.407Z,99757.56
2018-09-04T10:43:17.390Z,99759.94
2018-09-04T10:45:43.365Z,99760.27
2018-09-04T10:48:09.319Z,99754.27
2018-09-04T10:50:35.260Z,99753.45
2018-09-04T10:53:01.223Z,99746.32
2018-09-04T10:55:27.153Z,99754.47
2018-09-04T10:57:53.197Z,99752.04
2018-09-04T11:00:19.069Z,99750.40
2018-09-04T11:02:45.029Z,99751.49
2018-09-04T11:05:10.958Z,99745.14
2018-09-04T11:07:36.913Z,99743.11
2018-09-04T11:10:03.098Z,99741.09
2018-09-04T11:12:28.887Z,99740.91
2018-09-04T11:14:54.844Z,99745.57
2018-09-04T11:17:20.796Z,99746.69
2018-09-04T11:19:46.760Z,99746.83
2018-09-04T11:22:12.728Z,99752.30
2018-09-04T11:24:38.747Z,99745.42
2018-09-04T11:27:04.691Z,99740.31
2018-09-04T11:29:30.657Z,99743.22
2018-09-04T11:31:56.665Z,99739.03
2018-09-04T11:34:22.637Z,99735.25
2018-09-04T11:36:48.608Z,99734.57
2018-09-04T11:39:14.584Z,99733.67
2018-09-04T11:41:40.549Z,99735.92
2018-09-04T11:44:06.528Z,99738.23
2018-09-04T11:46:32.482Z,99735.80
2018-09-04T11:48:58.440Z,99731.86
2018-09-04T11:51:24.374Z,99732.83
2018-09-04T11:53:50.346Z,99736.08
2018-09-04T11:56:16.314Z,99742.95
2018-09-04T11:58:42.276Z,99733.38
2018-09-04T12:01:08.237Z,99741.13
2018-09-04T12:03:34.193Z,99741.89
2018-09-04T12:06:00.144Z,99738.86
2018-09-04T12:08:26.108Z,99737.97
2018-09-04T12:10:52.063Z,99740.81
2018-09-04T12:13:18.105Z,99743.00
2018-09-04T12:15:43.995Z,99745.14
2018-09-04T12:18:09.976Z,99741.61
2018-09-04T12:20:35.912Z,99740.67
2018-09-04T12:23:01.876Z,99736.55
2018-09-04T12:25:27.848Z,99734.44
2018-09-04T12:27:53.788Z,99732.77
2018-09-04T12:30:19.734Z,99727.65
2018-09-04T12:32:45.729Z,99723.17
2018-09-04T12:35:11.671Z,99728.08
2018-09-04T12:37:37.630Z,99732.31
2018-09-04T12:40:03.582Z,99726.45
2018-09-04T12:42:29.562Z,99732.89
2018-09-04T12:44:55.525Z,99729.99
2018-09-04T12:47:21.633Z,99727.50
2018-09-04T12:49:47.592Z,99729.51
2018-09-04T12:52:13.613Z,99726.96
2018-09-04T12:54:39.640Z,99719.35
2018-09-04T12:57:05.591Z,99711.87
2018-09-04T12:59:31.588Z,99717.56
2018-09-04T13:01:57.541Z,99718.19
2018-09-04T13:04:23.527Z,99718.55
2018-09-04T13:06:49.510Z,99707.81
2018-09-04T13:09:15.563Z,99710.70
2018-09-04T13:11:41.545Z,99714.98
2018-09-04T13:14:07.498Z,99717.95
2018-09-04T13:16:33.454Z,99713.95
2018-09-04T13:18:59.423Z,99712.18
2018-09-04T13:21:25.390Z,99709.23
2018-09-04T13:23:51.348Z,99710.50
2018-09-04T13:26:17.304Z,99704.47
2018-09-04T13:28:43.276Z,99704.48
2018-09-04T13:31:09.207Z,99703.66
2018-09-04T13:33:35.155Z,99702.18
2018-09-04T13:36:01.111Z,99703.58
2018-09-04T13:38:27.082Z,99707.16
2018-09-04T13:40:53.026Z,99700.12
2018-09-04T13:43:18.986Z,99696.53
2018-09-04T13:45:44.947Z,99694.41
2018-09-04T13:48:10.923Z,99694.61
2018-09-04T13:50:36.883Z,99696.72
2018-09-04T13:53:02.828Z,99690.25
2018-09-04T13:55:28.784Z,99693.88
2018-09-04T13:57:54.733Z,99688.70
2018-09-04T14:00:20.703Z,99696.82
2018-09-04T14:02:46.651Z,99689.42
2018-09-04T14:05:12.597Z,99686.83
2018-09-04T14:07:38.566Z,99694.23
2018-09-04T14:10:04.532Z,99697.17
2018-09-04T14:12:30.495Z,99699.77
2018-09-04T14:14:56.468Z,99704.41
2018-09-04T14:17:22.449Z,99698.30
2018-09-04T14:19:48.402Z,99699.23
2018-09-04T14:22:14.356Z,99698.87
2018-09-04T14:24:40.331Z,99702.17
2018-09-04T14:27:06.274Z,99695.91
2018-09-04T14:30:24.521Z,99701.89
2018-09-04T14:31:58.235Z,99708.36
2018-09-04T14:34:24.195Z,99702.09
2018-09-04T14:36:50.328Z,99703.48
2018-09-04T14:39:16.132Z,99700.88
2018-09-04T14:41:42.104Z,99703.30
2018-09-04T14:44:08.078Z,99700.98
2018-09-04T14:46:34.038Z,99702.18
2018-09-04T14:49:00.003Z,99706.42
2018-09-04T14:51:25.971Z,99708.37
2018-09-04T14:53:51.944Z,99701.45
2018-09-04T14:56:17.918Z,99702.45
2018-09-04T14:58:43.850Z,99703.64
2018-09-04T15:01:09.824Z,99699.22
2018-09-04T15:03:35.781Z,99697.38
2018-09-04T15:06:01.809Z,99702.16
2018-09-04T15:08:27.724Z,99698.56
2018-09-04T15:10:53.685Z,99703.83
2018-09-04T15:13:19.638Z,99700.53
2018-09-04T15:15:45.768Z,99694.91
2018-09-04T15:18:11.737Z,99695.09
2018-09-04T15:20:37.705Z,99701.63
2018-09-04T15:23:03.682Z,99706.17
2018-09-04T15:25:29.685Z,99703.94
2018-09-04T15:27:56.818Z,99466.59
2018-09-04T15:30:22.788Z,99712.13
2018-09-04T15:32:48.790Z,99717.77
2018-09-04T15:35:14.765Z,99715.83
2018-09-04T15:37:40.723Z,99714.64
2018-09-04T15:40:06.691Z,99709.02
2018-09-04T15:42:32.677Z,99711.95
2018-09-04T15:44:58.636Z,99714.05
2018-09-04T15:47:24.603Z,99710.95
2018-09-04T15:49:50.556Z,99710.14
2018-09-04T15:52:16.516Z,99711.95
2018-09-04T15:54:42.482Z,99710.86
2018-09-04T15:57:08.439Z,99706.72
2018-09-04T15:59:34.378Z,99709.42
2018-09-04T16:02:00.406Z,99706.47
2018-09-04T16:04:26.395Z,99717.34
2018-09-04T16:06:52.329Z,99720.50
2018-09-04T16:09:18.311Z,99721.22
2018-09-04T16:11:44.294Z,99717.34
2018-09-04T16:14:10.330Z,99719.17
2018-09-04T16:16:36.265Z,99719.35
2018-09-04T16:19:02.259Z,99728.43
2018-09-04T16:21:28.255Z,99719.45
2018-09-04T16:23:54.218Z,99723.33
2018-09-04T16:26:20.235Z,99721.49
2018-09-04T16:28:46.258Z,99726.52
2018-09-04T16:31:12.245Z,99720.84
2018-09-04T16:33:38.233Z,99724.05
2018-09-04T16:36:04.223Z,99725.53
2018-09-04T16:38:30.229Z,99725.73
2018-09-04T16:40:56.170Z,99726.16
2018-09-04T16:43:22.126Z,99729.45
2018-09-04T16:45:48.074Z,99726.03
2018-09-04T16:48:14.013Z,99725.55
2018-09-04T16:50:39.999Z,99727.63
2018-09-04T16:53:05.963Z,99729.72
2018-09-04T16:55:31.929Z,99731.29
2018-09-04T16:57:57.914Z,99731.99
2018-09-04T17:00:23.914Z,99740.20
2018-09-04T17:02:50.016Z,99734.98
2018-09-04T17:05:15.978Z,99736.55
2018-09-04T17:07:41.964Z,99735.16
2018-09-04T17:10:08.431Z,99742.02
2018-09-04T17:12:34.477Z,99739.70
2018-09-04T17:15:00.430Z,99750.92
2018-09-04T17:17:26.384Z,99746.21
2018-09-04T17:19:52.354Z,99750.17
2018-09-04T17:22:18.323Z,99758.89
2018-09-04T17:24:44.311Z,99754.13
2018-09-04T17:27:10.329Z,99759.83
2018-09-04T17:29:36.294Z,99753.73
2018-09-04T17:32:02.305Z,99756.13
2018-09-04T17:34:28.276Z,99759.56
2018-09-04T17:36:54.242Z,99762.06
2018-09-04T17:39:20.201Z,99758.91
2018-09-04T17:41:46.139Z,99770.25
2018-09-04T17:44:12.102Z,99772.11
2018-09-04T17:46:38.070Z,99771.08
2018-09-04T17:49:04.162Z,99776.45
2018-09-04T17:51:30.145Z,99774.70
2018-09-04T17:53:56.098Z,99775.89
2018-09-04T17:56:22.064Z,99780.33
2018-09-04T17:58:48.039Z,99773.67
2018-09-04T18:01:13.993Z,99780.48
2018-09-04T18:03:40.092Z,99786.88
2018-09-04T18:06:06.027Z,99786.81
2018-09-04T18:08:31.988Z,99789.10
2018-09-04T18:10:57.982Z,99789.76
2018-09-04T18:13:23.960Z,99799.75
2018-09-04T18:15:49.910Z,99799.91
2018-09-04T18:18:15.878Z,99800.27
2018-09-04T18:20:41.859Z,99804.42
2018-09-04T18:23:07.830Z,99805.99
2018-09-04T18:25:33.778Z,99808.58
2018-09-04T18:27:59.772Z,99810.63
2018-09-04T18:30:25.706Z,99809.87
2018-09-04T18:32:51.667Z,99809.84
2018-09-04T18:35:17.625Z,99816.63
2018-09-04T18:37:43.562Z,99818.25
2018-09-04T18:40:09.528Z,99819.81
2018-09-04T18:42:35.490Z,99827.77
2018-09-04T18:45:01.457Z,99826.22
2018-09-04T18:47:27.449Z,99829.55
2018-09-04T18:49:53.421Z,99835.41
2018-09-04T18:52:19.377Z,99834.50
2018-09-04T18:54:45.406Z,99837.53
2018-09-04T18:57:11.369Z,99835.52
2018-09-04T18:59:37.390Z,99838.16
2018-09-04T19:02:03.312Z,99842.16
2018-09-04T19:04:29.285Z,99840.03
2018-09-04T19:06:55.265Z,99844.71
2018-09-04T19:09:21.276Z,99841.98
2018-09-04T19:11:47.249Z,99844.00
2018-09-04T19:14:13.254Z,99849.51
2018-09-04T19:16:39.200Z,99851.02
2018-09-04T19:19:05.152Z,99847.59
2018-09-04T19:21:31.091Z,99845.22
2018-09-04T19:23:57.192Z,99849.97
2018-09-04T19:26:23.145Z,99852.55
2018-09-04T19:28:49.114Z,99859.06
2018-09-04T19:31:15.058Z,99857.83
2018-09-04T19:33:41.118Z,99854.97
2018-09-04T19:36:07.071Z,99855.61
2018-09-04T19:38:33.092Z,99852.88
2018-09-04T19:40:59.054Z,99850.53
2018-09-04T19:43:25.039Z,99853.45
2018-09-04T19:45:51.035Z,99861.75
2018-09-04T19:48:17.004Z,99857.19
2018-09-04T19:50:43.003Z,99860.86
2018-09-04T19:53:08.951Z,99865.19
2018-09-04T19:55:35.979Z,99861.77
2018-09-04T19:58:01.993Z,99868.59
2018-09-04T20:00:28.037Z,99866.23
2018-09-04T20:02:53.976Z,99871.17
2018-09-04T20:05:19.937Z,99869.16
2018-09-04T20:07:45.994Z,99871.39
2018-09-04T20:10:11.963Z,99877.14
2018-09-04T20:12:37.917Z,99881.69
2018-09-04T20:15:03.916Z,99876.78
2018-09-04T20:17:29.986Z,99882.31
2018-09-04T20:19:55.960Z,99880.48
2018-09-04T20:22:21.907Z,99886.63
2018-09-04T20:24:47.923Z,99892.20
2018-09-04T20:27:13.893Z,99890.55
2018-09-04T20:29:39.882Z,99892.39
2018-09-04T20:32:05.812Z,99895.09
2018-09-04T20:34:31.780Z,99900.64
2018-09-04T20:36:57.717Z,99894.61
2018-09-04T20:39:23.795Z,99898.45
2018-09-04T20:41:49.755Z,99904.23
2018-09-04T20:44:15.719Z,99901.34
2018-09-04T20:46:41.692Z,99909.09
2018-09-04T20:49:07.633Z,99913.80
2018-09-04T20:51:33.697Z,99906.63
2018-09-04T20:53:59.691Z,99906.58
2018-09-04T20:56:25.662Z,99912.53
2018-09-04T20:58:51.620Z,99912.76
2018-09-04T21:01:17.667Z,99914.75
2018-09-04T21:03:43.727Z,99907.00
2018-09-04T21:06:09.739Z,99916.41
2018-09-04T21:08:35.755Z,99904.11
2018-09-04T21:11:01.771Z,99910.86
2018-09-04T21:13:27.861Z,99913.30
2018-09-04T21:15:53.870Z,99915.17
2018-09-04T21:18:19.890Z,99917.34
2018-09-04T21:20:45.937Z,99920.72
2018-09-04T21:23:11.943Z,99916.67
2018-09-04T21:25:38.063Z,99923.46
2018-09-04T21:28:04.072Z,99923.80
2018-09-04T21:30:30.190Z,99919.58
2018-09-04T21:32:56.208Z,99917.40
2018-09-04T21:35:22.213Z,99913.45
2018-09-04T21:37:48.235Z,99923.20
2018-09-04T21:40:14.240Z,99912.84
2018-09-04T21:42:40.257Z,99920.78
2018-09-04T21:45:06.278Z,99918.00
2018-09-04T21:47:32.278Z,99920.70
2018-09-04T21:49:58.286Z,99924.70
2018-09-04T21:52:24.312Z,99919.86
2018-09-04T21:54:50.300Z,99924.78
2018-09-04T21:57:16.345Z,99919.91
2018-09-04T21:59:42.333Z,99925.41
2018-09-04T22:02:08.362Z,99925.98
2018-09-04T22:04:34.376Z,99929.55
2018-09-04T22:07:00.384Z,99928.41
2018-09-04T22:09:26.397Z,99930.01
2018-09-04T22:11:52.405Z,99927.59
2018-09-04T22:14:18.376Z,99926.20
2018-09-04T22:16:44.396Z,99930.24
2018-09-04T22:19:10.386Z,99925.66
2018-09-04T22:21:36.420Z,99926.81
2018-09-04T22:24:02.420Z,99931.38
2018-09-04T22:26:28.436Z,99936.98
2018-09-04T22:28:54.439Z,99933.96
2018-09-04T22:31:20.411Z,99936.67
2018-09-04T22:33:46.407Z,99942.33
2018-09-04T22:36:12.390Z,99940.31
2018-09-04T22:38:38.380Z,99938.86
2018-09-04T22:41:04.381Z,99939.42
2018-09-04T22:43:30.387Z,99938.95
2018-09-04T22:45:56.391Z,99936.81
2018-09-04T22:48:22.408Z,99934.64
2018-09-04T22:50:48.409Z,99935.89
2018-09-04T22:53:14.424Z,99934.43
2018-09-04T22:55:40.426Z,99932.95
2018-09-04T22:58:06.497Z,99940.59
2018-09-04T23:00:32.459Z,99934.50
2018-09-04T23:02:58.450Z,99943.25
2018-09-04T23:05:24.462Z,99941.05
2018-09-04T23:07:50.464Z,99935.67
2018-09-04T23:10:16.460Z,99943.55
2018-09-04T23:12:42.464Z,99944.58
2018-09-04T23:15:08.471Z,99943.56
2018-09-04T23:17:34.467Z,99948.55
2018-09-04T23:20:00.582Z,99952.32
2018-09-04T23:22:26.580Z,99946.84
2018-09-04T23:24:52.596Z,99939.17
2018-09-04T23:27:18.648Z,99944.34
2018-09-04T23:29:44.657Z,99939.95
2018-09-04T23:32:10.645Z,99944.03
2018-09-04T23:34:36.644Z,99937.85
2018-09-04T23:37:02.680Z,99944.06
2018-09-04T23:39:28.697Z,99945.13
2018-09-04T23:41:54.695Z,99940.36
2018-09-04T23:44:20.695Z,99944.53
2018-09-04T23:46:46.681Z,99945.84
2018-09-04T23:49:12.680Z,99944.12
2018-09-04T23:51:38.662Z,99942.19
2018-09-04T23:56:30.483Z,99942.55
2018-09-04T23:58:56.481Z,99944.48
